Terminal Aerodrome Forecast
Issued by NWS Duluth, MN

Home | Current Version | Previous Version | Text Only | Print | Product List | Glossary On
Versions: 1 2 3 4 5 6 7 8 9 10 11 12 13 14 15 16 17 18 19 20 21 22 23 24 25 26 27 28 29 30 31 32 33 34 35 36 37 38 39 40 41 42
000
FTUS43 KDLH 191100
TAFDLH
TAF
KDLH 191131Z 1912/2012 18010KT P6SM SCT010 OVC100 WS020/20040KT
      TEMPO 1912/1914 19012G20KT 5SM BR BKN010
     FM191400 19014G22KT P6SM VCSH SCT030 OVC080
     FM191600 20015G28KT P6SM VCSH BKN030
      TEMPO 1918/1922 4SM -TSRA BKN020CB
     FM200000 22010KT P6SM BKN025
     FM200600 VRB05KT 5SM BR VCSH OVC012=

USA.gov is the U.S. government's official web portal to all federal, state and local government web resources and services.